VATSIM Germany Forum

Zurück   VATSIM Germany Forum > Community > Events

Events Ankündigungen von Events, Checkouts, TV-Terminen, usw.

Antwort
 
LinkBack Themen-Optionen Ansicht
Alt 2016-01-04, 10:17   #51 (permalink)
 
Benutzerbild von Dietmar Brinschwitz
 
Registriert seit: 2005-09-03
Ort: Ansbach
Alter: 56
Beiträge: 1.518
Danke erteilt: 3.687
2.146 Danksagungen in 827 Beiträgen erhalten
Standard

Neues Jahr, neues Glück. 2016 erwarten Euch in EDDN ebenso motivierte ATCler wie im Vorjahr.

Zudem findet in Berlin ein CTR CPT statt, den wir gerne mit Traffic unterstützen.

Also von und nach EDDN.
__________________
Gruß Dietmar
DBGUN (Citation X)
DEGUN/DIDDI (Robin 400 - C 182 - PA 28 - PA31)
Dietmar Brinschwitz ist offline   Mit Zitat antworten
Alt 2016-01-11, 15:59   #52 (permalink)
 
Benutzerbild von Dietmar Brinschwitz
 
Registriert seit: 2005-09-03
Ort: Ansbach
Alter: 56
Beiträge: 1.518
Danke erteilt: 3.687
2.146 Danksagungen in 827 Beiträgen erhalten
Standard

Und die Wettervorhersage für heute Abend verspricht anspruchsvolle Anflüge für EDDN.

Wir sind in gewohnter Besetzung und professionellem Service für euch da.

Also lasst uns schwitzen.......
__________________
Gruß Dietmar
DBGUN (Citation X)
DEGUN/DIDDI (Robin 400 - C 182 - PA 28 - PA31)
Dietmar Brinschwitz ist offline   Mit Zitat antworten
Alt 2016-01-18, 18:56   #53 (permalink)
 
Benutzerbild von Dietmar Brinschwitz
 
Registriert seit: 2005-09-03
Ort: Ansbach
Alter: 56
Beiträge: 1.518
Danke erteilt: 3.687
2.146 Danksagungen in 827 Beiträgen erhalten
Standard

Wir wären auch wieder mal hier am Montag mit unseren Onlineday zugegen.

Wem es die letzten Montage gefallen hat, darf uns gerne wieder besuchen und natürlich wird auch heute wieder für Überraschung gesorgt.
__________________
Gruß Dietmar
DBGUN (Citation X)
DEGUN/DIDDI (Robin 400 - C 182 - PA 28 - PA31)
Dietmar Brinschwitz ist offline   Mit Zitat antworten
Alt 2016-01-25, 08:33   #54 (permalink)
 
Benutzerbild von Dietmar Brinschwitz
 
Registriert seit: 2005-09-03
Ort: Ansbach
Alter: 56
Beiträge: 1.518
Danke erteilt: 3.687
2.146 Danksagungen in 827 Beiträgen erhalten
Standard

Nürnberg schlägt heute den Altersrekord.

Also auf in eure und dann gehts nach /oder von EDDN in die weite Welt mit dem "ausgereiftesten" ATC'er Team.

Wettermäßig wird es auch interessant werden:

EDDN 250720Z VRB02KT 2200 -RADZ BR FEW005 BKN008 04/04 Q1030 NOSIG

TAF EDDN 250500Z 2506/2606 15003KT 9000 BKN020
TEMPO 2506/2509 3000 BR BKN007
BECMG 2516/2519 3000 BR BKN006
BECMG 2600/2602 24005KT
TEMPO 2602/2606 2000 BR OVC004
__________________
Gruß Dietmar
DBGUN (Citation X)
DEGUN/DIDDI (Robin 400 - C 182 - PA 28 - PA31)
Dietmar Brinschwitz ist offline   Mit Zitat antworten
Alt 2016-02-01, 05:53   #55 (permalink)
 
Benutzerbild von Dietmar Brinschwitz
 
Registriert seit: 2005-09-03
Ort: Ansbach
Alter: 56
Beiträge: 1.518
Danke erteilt: 3.687
2.146 Danksagungen in 827 Beiträgen erhalten
Standard

Heute geht's in die nächste Runde. In bekannter Besetzung und mit Wetterkapriolen erwarten wir Euch heute abend.

EDDN 010420Z 26017KT 7000 FEW010 BKN012 11/10 Q1014

TAF COR EDDN 312300Z 0100/0124 27020G30KT 6000 BKN015
TEMPO 0100/0108 3000 -RADZ OVC008
TEMPO 0105/0111 27025G40KT
BECMG 0122/0124 24012KT


Das riecht verdammt danach, das man sich mit den Fehlanflugverfahren vertraut macht

Und alle Departures zum CPT in EDDL bekommen einen Faschingskrapfen mit auf die Tour!
__________________
Gruß Dietmar
DBGUN (Citation X)
DEGUN/DIDDI (Robin 400 - C 182 - PA 28 - PA31)

Geändert von Dietmar Brinschwitz (2016-02-01 um 05:56 Uhr)
Dietmar Brinschwitz ist offline   Mit Zitat antworten
Alt 2016-02-08, 14:26   #56 (permalink)
VATSIM Germany ATC-TD Chief
 
Registriert seit: 2009-10-11
Ort: 3NM nordöstlich DN456
Alter: 63
Beiträge: 4.542
Danke erteilt: 3.031
5.961 Danksagungen in 2.627 Beiträgen erhalten
Standard

Das kann beim Anflug auf Nürnberg heute ganz schön ruppig werden.

TAF:
EDDN 081100Z 0812/0912 20015G25KT 9999 BKN030
BECMG 0814/0816 24020G35KT
TEMPO 0814/0822 26030G45KT SHRA BKN015CB



Und dann noch ein Holding über dem VOR ERL. Wie war das mit dem Vorhaltewinkel?

Die Outbounds zum CPT in Berlin können mit ganz schön Rückwind rechnen.
__________________
Leiter ATC Training vACC Germany | Deputy RG München | VATSIM Supervisor
Bernd Mehl ist offline   Mit Zitat antworten
Alt 2016-02-15, 06:13   #57 (permalink)
 
Benutzerbild von Dietmar Brinschwitz
 
Registriert seit: 2005-09-03
Ort: Ansbach
Alter: 56
Beiträge: 1.518
Danke erteilt: 3.687
2.146 Danksagungen in 827 Beiträgen erhalten
Standard

Heute gibts hier am Albrecht-Dürer-Airport (EDDN) Einiges zu Erleben.

Heinz möchte heute als Approcher mal bei seinem Training zum Schwitzen gebracht werden und braucht dazu natürlich Traffic, traffic.......

Ausserden unterstützen wir natürlich gerne die Kollegen in Tegel beim TWR-CPT mit Massen an Depatures und hoffentlich auch mit Inbounds
__________________
Gruß Dietmar
DBGUN (Citation X)
DEGUN/DIDDI (Robin 400 - C 182 - PA 28 - PA31)
Dietmar Brinschwitz ist offline   Mit Zitat antworten
Danksagungen
Alt 2016-02-22, 19:29   #58 (permalink)
VACC GER Staff
 
Benutzerbild von Heinz J. Andersen
 
Registriert seit: 2009-12-25
Ort: 2.55 nm NE of DESIM
Alter: 57
Beiträge: 270
Danke erteilt: 932
542 Danksagungen in 185 Beiträgen erhalten
Standard

Nachdem sich das Schwitzen auf dem APP-Posten in Nürnberg in der letzten Woche in Grenzen gehalten hat, würde ich mich heute um so mehr über an- und abfliegenden Verkehr freuen!

Vielleicht ändert sich nachher noch ein bisschen das Wetter und lädt zum Landen bei kräftigen Böen ein:

TAF: EDDN 221700Z 2218/2318 27012G25KT 9999 BKN030 BECMG 2218/2220 26007KT BECMG 2304/2306 32003KT BKN012 TEMPO 2304/2316 4000 RADZ SCT004 OVC008
__________________
Viele Grüße / best regards
Heinz
Event-/NAV-/Mentorenteam RG München | DSB der vACC-Germany

Heinz J. Andersen ist offline   Mit Zitat antworten
Alt 2016-02-29, 15:47   #59 (permalink)
VATSIM Germany RG München Chief
 
Registriert seit: 2009-09-10
Ort: EDDM
Alter: 42
Beiträge: 1.964
Danke erteilt: 4.154
1.753 Danksagungen in 895 Beiträgen erhalten
Standard

Es ist Montag, und wir sind wieder für euch da.
Das Wetter lädt förmlich zum fliegen ein, da draußen schlechtes Wetter ist.

Hier noch das TAF für heute:
EDDN 291100Z 2912/0112 34009KT 9999 OVC012 TEMPO 2914/2916 4000 RASN BECMG 2916/2918 4000 -SN OVC008 TEMPO 2918/2924 1400 SN OVC004 BECMG 0110/0112 8000

Wir freuen uns auf euren Besuch.
__________________
Chief RG-München
Christian Speth ist offline   Mit Zitat antworten
Danksagungen
Alt 2016-03-07, 13:23   #60 (permalink)
VATSIM Germany ATC-TD Chief
 
Registriert seit: 2009-10-11
Ort: 3NM nordöstlich DN456
Alter: 63
Beiträge: 4.542
Danke erteilt: 3.031
5.961 Danksagungen in 2.627 Beiträgen erhalten
Standard

Zitat:
TAF EDDN 071100Z 0712/0812 26005KT 9999 SCT030 PROB30 TEMPO 0712/0717 4500 SHRASN BKN020TCU=
Die Schnee- und Regenschauer sollten zwar schon vorbei sein - aber halten sie sich auch wirklich daran?

Wer seine Streckenfreigabe (so nennt sich das Ding in deutsch) mal per CPDLC bekommen möchte, hat heute mit Nürnberg den richtigen Abflugplatz ausgewählt. Natürlich sprechen wir auch mit jedem.
__________________
Leiter ATC Training vACC Germany | Deputy RG München | VATSIM Supervisor
Bernd Mehl ist offline   Mit Zitat antworten
Antwort

  VATSIM Germany Forum > Community > Events


Themen-Optionen
Ansicht

Forumregeln
Es ist dir nicht erlaubt, neue Themen zu verfassen.
Es ist dir nicht erlaubt, auf Beiträge zu antworten.
Es ist dir nicht erlaubt, Anhänge hochzuladen.
Es ist dir nicht erlaubt, deine Beiträge zu bearbeiten.

BB-Code ist an.
Smileys sind an.
[IMG] Code ist an.
HTML-Code ist aus.
Trackbacks are an
Pingbacks are an
Refbacks are an



Alle Zeitangaben in WEZ +2. Es ist jetzt 20:56 Uhr.


Powered by vBulletin® Version 3.8.4 (Deutsch)
Copyright ©2000 - 2018, Jelsoft Enterprises Ltd.
Template-Modifikationen durch TMS
© 2006 - 2018 vatsim-germany.org